createdAt,value
2023-05-14T00:01:59.016Z,14.50
2023-05-14T00:04:29.517Z,14.50
2023-05-14T00:06:57.146Z,14.40
2023-05-14T00:09:27.830Z,14.40
2023-05-14T00:11:55.126Z,14.40
2023-05-14T00:14:22.728Z,14.30
2023-05-14T00:16:50.973Z,14.30
2023-05-14T00:19:18.247Z,14.30
2023-05-14T00:21:49.088Z,14.20
2023-05-14T00:24:16.242Z,14.30
2023-05-14T00:26:43.538Z,14.20
2023-05-14T00:29:11.662Z,14.10
2023-05-14T00:31:38.896Z,14.10
2023-05-14T00:34:06.649Z,14.10
2023-05-14T00:36:37.066Z,14.00
2023-05-14T00:39:04.880Z,14.10
2023-05-14T00:41:32.241Z,14.00
2023-05-14T00:44:00.056Z,14.10
2023-05-14T00:46:28.613Z,14.00
2023-05-14T00:48:56.674Z,14.00
2023-05-14T00:51:25.531Z,13.90
2023-05-14T00:53:53.706Z,14.00
2023-05-14T00:56:21.764Z,14.00
2023-05-14T00:58:49.950Z,14.00
2023-05-14T01:01:18.182Z,13.90
2023-05-14T01:03:46.201Z,13.90
2023-05-14T01:06:29.341Z,13.90
2023-05-14T01:09:24.714Z,13.80
2023-05-14T01:12:06.371Z,13.80
2023-05-14T01:14:52.878Z,13.70
2023-05-14T01:17:22.977Z,13.80
2023-05-14T01:19:52.757Z,13.70
2023-05-14T01:22:20.233Z,13.70
2023-05-14T01:24:48.173Z,13.70
2023-05-14T01:27:35.915Z,13.70
2023-05-14T01:30:25.233Z,13.70
2023-05-14T01:32:57.878Z,13.60
2023-05-14T01:35:27.874Z,13.50
2023-05-14T01:38:03.965Z,13.50
2023-05-14T01:40:36.456Z,13.60
2023-05-14T01:43:05.136Z,13.50
2023-05-14T01:45:35.231Z,13.50
2023-05-14T01:48:02.547Z,13.50
2023-05-14T01:50:30.235Z,13.40
2023-05-14T01:52:57.861Z,13.40
2023-05-14T01:55:27.022Z,13.40
2023-05-14T01:57:54.925Z,13.30
2023-05-14T02:00:23.877Z,13.40
2023-05-14T02:02:51.587Z,13.30
2023-05-14T02:05:19.424Z,13.40
2023-05-14T02:07:46.621Z,13.30
2023-05-14T02:10:13.955Z,13.30
2023-05-14T02:12:41.776Z,13.30
2023-05-14T02:15:11.163Z,13.30
2023-05-14T02:17:42.652Z,13.30
2023-05-14T02:20:10.548Z,13.30
2023-05-14T02:22:48.769Z,13.30
2023-05-14T02:25:16.692Z,13.20
2023-05-14T02:27:43.989Z,13.20
2023-05-14T02:30:12.129Z,13.30
2023-05-14T02:32:40.041Z,13.30
2023-05-14T02:35:08.422Z,13.40
2023-05-14T02:37:36.057Z,13.40
2023-05-14T02:40:06.755Z,13.40
2023-05-14T02:42:34.644Z,13.40
2023-05-14T02:45:02.730Z,13.50
2023-05-14T02:47:34.773Z,13.50
2023-05-14T02:50:04.995Z,13.50
2023-05-14T02:52:33.541Z,13.50
2023-05-14T02:55:01.194Z,13.50
2023-05-14T02:57:28.424Z,13.60
2023-05-14T02:59:58.545Z,13.70
2023-05-14T03:02:29.574Z,13.80
2023-05-14T03:04:57.473Z,13.80
2023-05-14T03:07:24.664Z,13.80
2023-05-14T03:09:51.852Z,13.80
2023-05-14T03:12:22.796Z,13.90
2023-05-14T03:14:50.975Z,14.00
2023-05-14T03:17:18.233Z,14.00
2023-05-14T03:19:45.669Z,13.90
2023-05-14T03:22:23.298Z,14.00
2023-05-14T03:24:50.452Z,14.00
2023-05-14T03:27:17.712Z,14.10
2023-05-14T03:29:44.948Z,14.20
2023-05-14T03:32:12.238Z,14.20
2023-05-14T03:34:39.800Z,14.20
2023-05-14T03:37:07.305Z,14.30
2023-05-14T03:39:34.504Z,14.30
2023-05-14T03:42:01.786Z,14.40
2023-05-14T03:44:35.409Z,14.40
2023-05-14T03:47:02.838Z,14.60
2023-05-14T03:49:30.163Z,14.70
2023-05-14T03:51:59.845Z,14.70
2023-05-14T03:54:27.564Z,14.80
2023-05-14T03:56:55.183Z,14.90
2023-05-14T03:59:22.440Z,15.00
2023-05-14T04:01:50.698Z,15.10
2023-05-14T04:04:17.849Z,15.20
2023-05-14T04:06:48.153Z,15.40
2023-05-14T04:09:18.779Z,15.60
2023-05-14T04:11:46.820Z,16.00
2023-05-14T04:14:17.084Z,16.80
2023-05-14T04:16:44.461Z,18.10
2023-05-14T04:19:12.602Z,19.20
2023-05-14T04:21:40.579Z,20.10
2023-05-14T04:24:10.549Z,20.50
2023-05-14T04:26:37.800Z,20.90
2023-05-14T04:29:07.410Z,21.30
2023-05-14T04:31:34.631Z,21.80
2023-05-14T04:34:01.949Z,22.60
2023-05-14T04:36:29.219Z,23.50
2023-05-14T04:38:56.679Z,23.60
2023-05-14T04:41:25.915Z,23.20
2023-05-14T04:43:56.733Z,22.70
2023-05-14T04:46:23.962Z,22.20
2023-05-14T04:48:52.001Z,22.50
2023-05-14T04:51:19.744Z,23.50
2023-05-14T04:53:47.485Z,24.80
2023-05-14T04:56:15.405Z,26.20
2023-05-14T04:58:42.709Z,27.60
2023-05-14T05:01:10.597Z,28.90
2023-05-14T05:03:38.069Z,29.50
2023-05-14T05:06:08.214Z,30.30
2023-05-14T05:08:36.817Z,31.00
2023-05-14T05:11:04.793Z,31.80
2023-05-14T05:13:32.753Z,32.60
2023-05-14T05:15:59.878Z,33.10
2023-05-14T05:18:27.966Z,33.70
2023-05-14T05:20:57.410Z,34.30
2023-05-14T05:23:25.120Z,34.80
2023-05-14T05:25:52.561Z,35.10
2023-05-14T05:28:21.166Z,35.20
2023-05-14T05:30:51.514Z,35.40
2023-05-14T05:33:22.153Z,35.50
2023-05-14T05:35:50.201Z,35.50
2023-05-14T05:38:20.973Z,35.50
2023-05-14T05:40:48.405Z,35.80
2023-05-14T05:43:16.253Z,36.20
2023-05-14T05:45:43.845Z,36.60
2023-05-14T05:48:14.242Z,37.10
2023-05-14T05:50:41.725Z,38.00
2023-05-14T05:53:08.893Z,38.50
2023-05-14T05:55:36.188Z,38.80
2023-05-14T05:58:03.294Z,39.00
2023-05-14T06:00:31.329Z,39.30
2023-05-14T06:02:59.411Z,39.70
2023-05-14T06:05:27.849Z,40.00
2023-05-14T06:07:57.582Z,40.10
2023-05-14T06:10:25.458Z,40.10
2023-05-14T06:12:52.895Z,40.20
2023-05-14T06:15:20.860Z,40.60
2023-05-14T06:17:48.321Z,40.90
2023-05-14T06:20:16.551Z,41.10
2023-05-14T06:22:44.681Z,40.90
2023-05-14T06:25:12.109Z,40.90
2023-05-14T06:27:40.337Z,41.10
2023-05-14T06:30:08.313Z,41.20
2023-05-14T06:32:39.064Z,41.20
2023-05-14T06:35:06.922Z,41.50
2023-05-14T06:37:34.611Z,41.70
2023-05-14T06:40:02.446Z,42.10
2023-05-14T06:42:33.555Z,42.70
2023-05-14T06:45:00.901Z,43.10
2023-05-14T06:47:28.155Z,43.30
2023-05-14T06:49:56.810Z,43.10
2023-05-14T06:52:24.487Z,42.70
2023-05-14T06:54:52.402Z,43.00
2023-05-14T06:57:19.524Z,42.90
2023-05-14T06:59:46.661Z,42.80
2023-05-14T07:02:13.960Z,43.10
2023-05-14T07:04:47.631Z,43.30
2023-05-14T07:07:18.915Z,43.30
2023-05-14T07:09:49.195Z,43.70
2023-05-14T07:12:16.600Z,44.20
2023-05-14T07:14:47.019Z,44.40
2023-05-14T07:17:15.472Z,44.00
2023-05-14T07:19:42.927Z,43.60
2023-05-14T07:22:09.964Z,43.80
2023-05-14T07:24:37.714Z,44.10
2023-05-14T07:27:05.123Z,44.00
2023-05-14T07:29:37.558Z,44.00
2023-05-14T07:32:05.432Z,43.90
2023-05-14T07:34:42.375Z,43.60
2023-05-14T07:37:09.730Z,43.20
2023-05-14T07:39:36.782Z,43.10
2023-05-14T07:42:05.770Z,43.20
2023-05-14T07:44:33.319Z,42.50
2023-05-14T07:47:00.682Z,41.70
2023-05-14T07:49:28.032Z,41.20
2023-05-14T07:51:55.522Z,41.30
2023-05-14T07:54:22.811Z,42.00
2023-05-14T07:56:50.611Z,42.50
2023-05-14T07:59:17.921Z,43.30
2023-05-14T08:01:48.892Z,44.00
2023-05-14T08:04:16.646Z,44.10
2023-05-14T08:06:44.148Z,44.20
2023-05-14T08:09:11.482Z,44.10
2023-05-14T08:11:39.972Z,43.90
2023-05-14T08:14:07.406Z,43.70
2023-05-14T08:16:34.859Z,43.70
2023-05-14T08:19:02.253Z,43.90
2023-05-14T08:21:29.607Z,44.20
2023-05-14T08:23:57.081Z,44.50
2023-05-14T08:26:24.490Z,44.80
2023-05-14T08:28:51.898Z,45.00
2023-05-14T08:31:19.713Z,44.90
2023-05-14T08:33:47.707Z,45.00
2023-05-14T08:36:15.147Z,44.60
2023-05-14T08:38:42.977Z,44.60
2023-05-14T08:41:12.134Z,43.90
2023-05-14T08:44:12.034Z,43.40
2023-05-14T08:46:40.503Z,42.80
2023-05-14T08:49:17.642Z,42.90
2023-05-14T08:51:50.932Z,43.50
2023-05-14T08:54:18.914Z,43.90
2023-05-14T08:56:46.751Z,44.00
2023-05-14T08:59:14.392Z,44.60
2023-05-14T09:01:52.133Z,44.80
2023-05-14T09:04:24.702Z,44.90
2023-05-14T09:06:56.843Z,44.90
2023-05-14T09:09:24.420Z,44.10
2023-05-14T09:11:53.017Z,43.40
2023-05-14T09:14:22.593Z,42.80
2023-05-14T09:16:53.594Z,42.80
2023-05-14T09:19:21.771Z,43.50
2023-05-14T09:22:02.964Z,43.60
2023-05-14T09:24:30.467Z,43.40
2023-05-14T09:26:58.968Z,42.60
2023-05-14T09:29:28.595Z,42.30
2023-05-14T09:31:57.724Z,42.20
2023-05-14T09:34:38.183Z,42.20
2023-05-14T09:37:10.255Z,42.10
2023-05-14T09:39:41.111Z,41.50
2023-05-14T09:42:08.470Z,40.50
2023-05-14T09:44:38.444Z,39.60
2023-05-14T09:47:06.501Z,39.20
2023-05-14T09:49:34.739Z,39.20
2023-05-14T09:52:03.790Z,39.00
2023-05-14T09:54:34.736Z,38.30
2023-05-14T09:57:02.150Z,38.00
2023-05-14T09:59:29.432Z,37.90
2023-05-14T10:01:58.508Z,37.10
2023-05-14T10:04:28.742Z,36.30
2023-05-14T10:06:57.171Z,35.90
2023-05-14T10:09:27.904Z,35.80
2023-05-14T10:12:01.689Z,35.90
2023-05-14T10:14:41.299Z,35.50
2023-05-14T10:17:18.300Z,35.20
2023-05-14T10:19:57.548Z,35.00
2023-05-14T10:22:31.235Z,34.90
2023-05-14T10:24:59.028Z,34.60
2023-05-14T10:27:27.608Z,34.20
2023-05-14T10:29:56.421Z,33.60
2023-05-14T10:32:25.871Z,33.10
2023-05-14T10:34:54.090Z,32.70
2023-05-14T10:37:24.636Z,32.50
2023-05-14T10:39:55.919Z,32.00
2023-05-14T10:42:26.704Z,30.90
2023-05-14T10:45:02.324Z,30.10
2023-05-14T10:47:35.989Z,29.70
2023-05-14T10:50:10.211Z,29.40
2023-05-14T10:52:37.910Z,29.00
2023-05-14T10:55:10.357Z,28.60
2023-05-14T10:57:39.256Z,28.30
2023-05-14T11:00:09.198Z,28.20
2023-05-14T11:02:43.920Z,27.90
2023-05-14T11:05:17.926Z,27.70
2023-05-14T11:07:48.177Z,27.60
2023-05-14T11:10:20.210Z,27.50
2023-05-14T11:12:49.943Z,27.20
2023-05-14T11:15:20.590Z,27.00
2023-05-14T11:17:50.280Z,26.80
2023-05-14T11:20:18.415Z,26.70
2023-05-14T11:22:49.472Z,26.50
2023-05-14T11:25:18.023Z,26.30
2023-05-14T11:27:48.236Z,26.20
2023-05-14T11:30:18.215Z,26.20
2023-05-14T11:32:51.291Z,26.10
2023-05-14T11:35:21.136Z,26.10
2023-05-14T11:37:52.958Z,26.20
2023-05-14T11:40:20.470Z,26.30
2023-05-14T11:42:51.348Z,26.40
2023-05-14T11:45:26.582Z,26.50
2023-05-14T11:47:54.975Z,26.50
2023-05-14T11:50:27.558Z,26.50
2023-05-14T11:52:57.877Z,26.50
2023-05-14T11:55:31.006Z,26.50
2023-05-14T11:57:59.116Z,26.60
2023-05-14T12:00:27.530Z,26.50
2023-05-14T12:02:55.014Z,26.30
2023-05-14T12:05:22.726Z,26.30
2023-05-14T12:07:49.907Z,26.10
2023-05-14T12:10:17.467Z,26.00
2023-05-14T12:12:48.887Z,25.80
2023-05-14T12:15:19.300Z,25.70
2023-05-14T12:17:53.492Z,25.60
2023-05-14T12:20:21.107Z,25.50
2023-05-14T12:22:48.671Z,25.50
2023-05-14T12:25:16.406Z,25.40
2023-05-14T12:27:45.827Z,25.50
2023-05-14T12:32:45.332Z,25.50
2023-05-14T12:35:12.754Z,25.60
2023-05-14T12:37:41.391Z,25.50
2023-05-14T12:40:12.184Z,25.60
2023-05-14T12:42:39.204Z,25.60
2023-05-14T12:45:13.168Z,25.60
2023-05-14T12:47:41.889Z,25.50
2023-05-14T12:50:09.603Z,25.70
2023-05-14T12:52:40.127Z,25.70
2023-05-14T12:55:09.855Z,25.60
2023-05-14T12:57:39.473Z,25.60
2023-05-14T13:00:12.973Z,25.60
2023-05-14T13:02:42.677Z,25.60
2023-05-14T13:05:13.588Z,25.60
2023-05-14T13:07:50.660Z,25.60
2023-05-14T13:10:20.798Z,25.60
2023-05-14T13:12:52.888Z,25.80
2023-05-14T13:15:23.705Z,25.80
2023-05-14T13:17:51.390Z,25.90
2023-05-14T13:20:18.703Z,25.90
2023-05-14T13:22:46.648Z,25.80
2023-05-14T13:25:14.516Z,25.70
2023-05-14T13:27:41.975Z,25.60
2023-05-14T13:30:10.277Z,25.40
2023-05-14T13:32:38.922Z,25.40
2023-05-14T13:35:08.046Z,25.30
2023-05-14T13:37:35.856Z,25.30
2023-05-14T13:40:09.598Z,25.20
2023-05-14T13:42:37.702Z,25.20
2023-05-14T13:45:05.594Z,25.10
2023-05-14T13:47:34.838Z,25.00
2023-05-14T13:50:02.168Z,25.00
2023-05-14T13:52:33.346Z,25.20
2023-05-14T13:55:01.633Z,25.10
2023-05-14T13:57:31.605Z,25.30
2023-05-14T14:00:02.584Z,25.40
2023-05-14T14:02:34.185Z,25.30
2023-05-14T14:05:02.176Z,25.20
2023-05-14T14:07:32.576Z,25.20
2023-05-14T14:10:03.360Z,25.20
2023-05-14T14:12:33.307Z,25.30
2023-05-14T14:15:02.876Z,25.30
2023-05-14T14:17:34.984Z,25.20
2023-05-14T14:20:04.375Z,25.10
2023-05-14T14:22:32.473Z,25.20
2023-05-14T14:25:00.332Z,25.10
2023-05-14T14:27:28.161Z,25.10
2023-05-14T14:29:57.243Z,25.10
2023-05-14T14:32:24.496Z,25.10
2023-05-14T14:34:51.862Z,25.20
2023-05-14T14:37:23.185Z,25.20
2023-05-14T14:39:50.997Z,25.10
2023-05-14T14:42:18.580Z,24.90
2023-05-14T14:44:45.867Z,24.70
2023-05-14T14:47:13.539Z,24.60
2023-05-14T14:49:41.119Z,24.50
2023-05-14T14:52:09.410Z,24.50
2023-05-14T14:54:37.133Z,24.60
2023-05-14T14:57:04.542Z,24.50
2023-05-14T14:59:31.834Z,24.40
2023-05-14T15:01:59.789Z,24.30
2023-05-14T15:04:26.953Z,24.20
2023-05-14T15:06:54.453Z,24.20
2023-05-14T15:09:24.013Z,24.20
2023-05-14T15:11:51.497Z,24.20
2023-05-14T15:14:18.696Z,24.20
2023-05-14T15:16:48.161Z,24.00
2023-05-14T15:19:17.622Z,24.00
2023-05-14T15:21:45.016Z,24.00
2023-05-14T15:24:13.646Z,23.90
2023-05-14T15:26:41.655Z,23.90
2023-05-14T15:29:09.607Z,23.80
2023-05-14T15:31:36.858Z,23.80
2023-05-14T15:34:04.308Z,23.70
2023-05-14T15:36:32.532Z,23.80
2023-05-14T15:39:00.618Z,23.60
2023-05-14T15:41:29.135Z,23.50
2023-05-14T15:43:57.579Z,23.40
2023-05-14T15:46:26.259Z,23.30
2023-05-14T15:48:53.860Z,23.30
2023-05-14T15:51:21.469Z,23.30
2023-05-14T15:53:48.851Z,23.20
2023-05-14T15:56:16.372Z,23.00
2023-05-14T15:58:44.320Z,22.90
2023-05-14T16:01:14.875Z,23.00
2023-05-14T16:03:42.550Z,22.90
2023-05-14T16:06:10.368Z,22.70
2023-05-14T16:08:38.536Z,22.70
2023-05-14T16:11:06.491Z,22.70
2023-05-14T16:13:35.147Z,22.60
2023-05-14T16:16:02.852Z,22.50
2023-05-14T16:18:30.425Z,22.60
2023-05-14T16:20:58.041Z,22.60
2023-05-14T16:23:27.640Z,22.50
2023-05-14T16:25:55.338Z,22.50
2023-05-14T16:28:23.030Z,22.40
2023-05-14T16:30:50.779Z,22.30
2023-05-14T16:33:17.964Z,22.30
2023-05-14T16:35:46.044Z,22.10
2023-05-14T16:38:13.278Z,22.10
2023-05-14T16:40:42.253Z,22.00
2023-05-14T16:43:09.548Z,21.90
2023-05-14T16:45:37.534Z,21.90
2023-05-14T16:48:05.036Z,21.70
2023-05-14T16:50:32.676Z,21.60
2023-05-14T16:53:00.033Z,21.50
2023-05-14T16:55:27.297Z,21.50
2023-05-14T16:57:58.361Z,21.50
2023-05-14T17:00:26.502Z,21.30
2023-05-14T17:02:54.553Z,21.30
2023-05-14T17:05:24.598Z,21.20
2023-05-14T17:07:53.135Z,21.10
2023-05-14T17:10:20.723Z,21.00
2023-05-14T17:12:48.037Z,21.00
2023-05-14T17:15:15.565Z,20.90
2023-05-14T17:17:42.957Z,20.90
2023-05-14T17:20:10.665Z,20.80
2023-05-14T17:22:39.000Z,20.70
2023-05-14T17:25:06.846Z,20.70
2023-05-14T17:27:34.032Z,20.50
2023-05-14T17:30:01.739Z,20.50
2023-05-14T17:32:34.883Z,20.40
2023-05-14T17:35:03.299Z,20.40
2023-05-14T17:37:34.209Z,20.20
2023-05-14T17:40:01.405Z,20.10
2023-05-14T17:42:30.711Z,19.90
2023-05-14T17:44:58.048Z,19.90
2023-05-14T17:47:25.275Z,19.90
2023-05-14T17:49:53.092Z,19.80
2023-05-14T17:52:20.822Z,19.70
2023-05-14T17:54:50.991Z,19.60
2023-05-14T17:57:24.219Z,19.60
2023-05-14T17:59:51.345Z,19.50
2023-05-14T18:02:21.400Z,19.50
2023-05-14T18:04:49.085Z,19.30
2023-05-14T18:07:16.705Z,19.40
2023-05-14T18:09:44.736Z,19.30
2023-05-14T18:12:12.053Z,19.20
2023-05-14T18:14:39.425Z,19.20
2023-05-14T18:17:06.861Z,19.10
2023-05-14T18:19:34.374Z,19.00
2023-05-14T18:22:01.806Z,19.00
2023-05-14T18:24:31.302Z,19.00
2023-05-14T18:26:59.664Z,18.90
2023-05-14T18:29:27.158Z,18.80
2023-05-14T18:31:54.630Z,18.80
2023-05-14T18:34:24.530Z,18.70
2023-05-14T18:37:02.504Z,18.60
2023-05-14T18:39:30.103Z,18.60
2023-05-14T18:41:57.788Z,18.60
2023-05-14T18:44:27.556Z,18.50
2023-05-14T18:46:55.815Z,18.40
2023-05-14T18:49:22.948Z,18.40
2023-05-14T18:51:50.640Z,18.30
2023-05-14T18:54:18.100Z,18.20
2023-05-14T18:56:47.517Z,18.20
2023-05-14T18:59:15.505Z,18.20
2023-05-14T19:01:42.802Z,18.10
2023-05-14T19:04:10.476Z,18.10
2023-05-14T19:06:40.672Z,18.00
2023-05-14T19:09:08.260Z,18.00
2023-05-14T19:11:35.788Z,17.80
2023-05-14T19:14:03.742Z,17.80
2023-05-14T19:16:34.634Z,17.70
2023-05-14T19:19:02.442Z,17.60
2023-05-14T19:21:29.835Z,17.60
2023-05-14T19:23:57.425Z,17.50
2023-05-14T19:26:25.167Z,17.60
2023-05-14T19:28:58.793Z,17.50
2023-05-14T19:31:27.269Z,17.50
2023-05-14T19:33:55.063Z,17.30
2023-05-14T19:36:22.499Z,17.30
2023-05-14T19:38:49.660Z,17.30
2023-05-14T19:41:16.992Z,17.20
2023-05-14T19:43:44.686Z,17.20
2023-05-14T19:46:11.987Z,17.20
2023-05-14T19:48:39.259Z,17.10
2023-05-14T19:51:06.683Z,17.00
2023-05-14T19:53:34.006Z,17.00
2023-05-14T19:56:02.624Z,17.10
2023-05-14T19:58:30.347Z,17.00
2023-05-14T20:00:58.543Z,16.90
2023-05-14T20:03:26.372Z,17.00
2023-05-14T20:05:55.138Z,16.90
2023-05-14T20:08:22.496Z,16.90
2023-05-14T20:10:49.818Z,16.70
2023-05-14T20:13:21.018Z,16.70
2023-05-14T20:15:49.148Z,16.80
2023-05-14T20:18:17.195Z,16.70
2023-05-14T20:20:44.631Z,16.60
2023-05-14T20:23:14.894Z,16.60
2023-05-14T20:25:43.423Z,16.50
2023-05-14T20:28:11.063Z,16.50
2023-05-14T20:30:38.624Z,16.40
2023-05-14T20:33:06.667Z,16.50
2023-05-14T20:35:34.152Z,16.30
2023-05-14T20:38:02.370Z,16.40
2023-05-14T20:40:29.761Z,16.40
2023-05-14T20:42:56.906Z,16.30
2023-05-14T20:45:24.673Z,16.20
2023-05-14T20:47:52.708Z,16.20
2023-05-14T20:50:23.271Z,16.20
2023-05-14T20:52:50.752Z,16.20
2023-05-14T20:55:19.120Z,16.10
2023-05-14T20:57:49.923Z,16.10
2023-05-14T21:00:19.756Z,16.10
2023-05-14T21:02:50.693Z,16.10
2023-05-14T21:05:18.238Z,16.00
2023-05-14T21:07:45.859Z,16.00
2023-05-14T21:10:13.242Z,16.00
2023-05-14T21:12:42.674Z,15.90
2023-05-14T21:15:11.262Z,15.80
2023-05-14T21:17:38.733Z,15.90
2023-05-14T21:20:06.810Z,15.80
2023-05-14T21:22:34.252Z,15.70
2023-05-14T21:25:01.819Z,15.80
2023-05-14T21:27:31.175Z,15.70
2023-05-14T21:29:58.676Z,15.60
2023-05-14T21:32:26.535Z,15.70
2023-05-14T21:34:54.602Z,15.50
2023-05-14T21:37:22.237Z,15.50
2023-05-14T21:39:49.726Z,15.50
2023-05-14T21:42:20.253Z,15.50
2023-05-14T21:44:48.870Z,15.50
2023-05-14T21:47:16.651Z,15.50
2023-05-14T21:49:44.266Z,15.50
2023-05-14T21:52:12.125Z,15.40
2023-05-14T21:54:42.429Z,15.30
2023-05-14T21:57:09.880Z,15.40
2023-05-14T21:59:40.648Z,15.30
2023-05-14T22:02:08.346Z,15.30
2023-05-14T22:04:36.066Z,15.20
2023-05-14T22:07:06.751Z,15.20
2023-05-14T22:09:37.122Z,15.30
2023-05-14T22:12:05.631Z,15.20
2023-05-14T22:14:33.079Z,15.20
2023-05-14T22:17:00.482Z,15.10
2023-05-14T22:19:28.057Z,15.10
2023-05-14T22:21:55.723Z,15.10
2023-05-14T22:24:23.021Z,15.10
2023-05-14T22:26:50.997Z,15.00
2023-05-14T22:29:18.228Z,15.00
2023-05-14T22:31:46.263Z,15.00
2023-05-14T22:34:13.965Z,14.90
2023-05-14T22:36:41.074Z,15.00
2023-05-14T22:39:09.691Z,14.90
2023-05-14T22:41:38.026Z,14.90
2023-05-14T22:44:06.009Z,14.80
2023-05-14T22:46:33.258Z,14.80
2023-05-14T22:49:00.429Z,14.80
2023-05-14T22:51:27.484Z,14.80
2023-05-14T22:53:54.662Z,14.70
2023-05-14T22:56:22.531Z,14.70
2023-05-14T22:58:49.654Z,14.80
2023-05-14T23:01:17.113Z,14.70
2023-05-14T23:03:50.279Z,14.70
2023-05-14T23:06:17.735Z,14.60
2023-05-14T23:08:45.238Z,14.60
2023-05-14T23:11:13.494Z,14.60
2023-05-14T23:13:41.849Z,14.60
2023-05-14T23:16:09.356Z,14.50
2023-05-14T23:18:36.999Z,14.50
2023-05-14T23:21:05.031Z,14.50
2023-05-14T23:23:35.079Z,14.50
2023-05-14T23:26:02.537Z,14.40
2023-05-14T23:28:30.691Z,14.40
2023-05-14T23:30:58.307Z,14.40
2023-05-14T23:33:25.696Z,14.30
2023-05-14T23:35:53.702Z,14.30
2023-05-14T23:38:24.643Z,14.30
2023-05-14T23:40:52.030Z,14.30
2023-05-14T23:43:19.266Z,14.30
2023-05-14T23:45:46.713Z,14.20
2023-05-14T23:48:15.134Z,14.20
2023-05-14T23:50:42.615Z,14.20
2023-05-14T23:53:09.803Z,14.20
2023-05-14T23:55:37.501Z,14.10
2023-05-14T23:58:07.624Z,14.10
